Time;durP1;ratioP1;P1;durP2;ratioP2;P2;SDS_P1;SDS_P2;PMS_P1;PMS_P2;Temp;Humidity;BMP_temperature;BMP_pressure;BME280_temperature;BME280_humidity;BME280_pressure;Samples;Min_cycle;Max_cycle;Signal;HPM_P1;HPM_P2
2022/06/26 00:01:21;;;;;;;5.53;1.40;;;25.60;50.50;24.50;100715.00;;;;5066520;28;20098;-66
2022/06/26 00:04:08;;;;;;;1.90;1.40;;;25.60;50.50;24.50;100720.00;;;;5055442;28;20041;-66
2022/06/26 00:06:55;;;;;;;2.15;1.35;;;25.60;50.60;24.50;100726.00;;;;5063367;28;20045;-66
2022/06/26 00:09:42;;;;;;;;;;;25.60;50.60;24.50;100720.00;;;;5066370;28;20050;-66
2022/06/26 00:12:28;;;;;;;2.03;1.38;;;25.70;50.60;24.50;100720.00;;;;5054461;28;19935;-66
2022/06/26 00:15:15;;;;;;;1.80;1.33;;;25.70;50.60;24.50;100722.00;;;;5067296;28;20474;-66
2022/06/26 00:18:01;;;;;;;1.73;1.40;;;25.60;50.50;24.50;100722.00;;;;5046958;28;20040;-66
2022/06/26 00:20:47;;;;;;;2.80;1.40;;;25.60;50.60;24.50;100721.00;;;;5066125;28;20040;-66
2022/06/26 00:23:34;;;;;;;2.42;1.48;;;25.60;50.60;24.50;100721.00;;;;5047333;28;20040;-66
2022/06/26 00:26:20;;;;;;;2.88;1.60;;;25.50;50.60;24.50;100725.00;;;;5049547;28;20036;-66
2022/06/26 00:29:06;;;;;;;2.20;1.38;;;25.60;50.70;24.50;100721.00;;;;5067566;28;20044;-66
2022/06/26 00:31:52;;;;;;;2.20;1.48;;;25.50;50.60;24.50;100718.00;;;;5046409;28;20045;-66
2022/06/26 00:34:38;;;;;;;1.70;1.30;;;25.60;50.80;24.50;100726.00;;;;5064248;28;20056;-66
2022/06/26 00:37:24;;;;;;;3.25;1.98;;;25.50;50.80;24.50;100724.00;;;;5065263;28;20044;-66
2022/06/26 00:40:10;;;;;;;1.58;1.42;;;25.60;50.90;24.50;100718.00;;;;5062190;28;20406;-66
2022/06/26 00:42:56;;;;;;;6.55;2.05;;;25.60;50.80;24.50;100715.00;;;;5064659;28;20394;-67
2022/06/26 00:45:42;;;;;;;2.55;1.35;;;25.60;50.80;24.50;100717.00;;;;5061262;28;20043;-66
2022/06/26 00:48:28;;;;;;;3.33;1.30;;;25.60;50.80;24.50;100709.00;;;;5065787;28;20536;-66
2022/06/26 00:51:14;;;;;;;4.45;1.40;;;25.50;50.80;24.50;100711.00;;;;5067286;28;20047;-66
2022/06/26 00:54:00;;;;;;;2.20;1.60;;;25.60;50.80;24.50;100711.00;;;;5039552;28;20075;-66
2022/06/26 00:56:47;;;;;;;1.55;1.40;;;25.60;50.80;24.50;100712.00;;;;5045634;28;20048;-66
2022/06/26 00:59:33;;;;;;;1.45;1.35;;;25.60;50.80;24.50;100713.00;;;;5039583;28;20037;-66
2022/06/26 01:02:19;;;;;;;2.20;1.40;;;25.60;50.80;24.50;100711.00;;;;5043613;28;20051;-66
2022/06/26 01:05:06;;;;;;;1.52;1.20;;;25.50;50.70;24.50;100711.00;;;;5057011;28;20052;-66
2022/06/26 01:07:52;;;;;;;2.65;1.35;;;25.50;50.70;24.50;100702.00;;;;5063068;28;20037;-66
2022/06/26 01:10:38;;;;;;;3.03;1.60;;;25.50;50.80;24.50;100705.00;;;;5042415;28;20048;-67
2022/06/26 01:13:25;;;;;;;1.95;1.38;;;25.60;50.70;24.50;100708.00;;;;5044891;28;20059;-66
2022/06/26 01:16:19;;;;;;;2.00;1.33;;;25.70;50.90;24.50;100701.00;;;;5047197;28;20036;-66
2022/06/26 01:19:06;;;;;;;1.83;1.40;;;25.60;50.80;24.50;100696.00;;;;5046738;28;20485;-66
2022/06/26 01:21:52;;;;;;;3.72;1.48;;;25.50;50.70;24.40;100702.00;;;;5063526;28;20272;-66
2022/06/26 01:24:38;;;;;;;1.80;1.23;;;25.50;50.70;24.40;100702.00;;;;5038739;28;20275;-66
2022/06/26 01:27:24;;;;;;;2.10;1.48;;;25.50;50.70;24.40;100698.00;;;;5064211;28;20040;-66
2022/06/26 01:30:11;;;;;;;1.92;1.10;;;25.50;50.70;24.40;100706.00;;;;5057325;28;20098;-66
2022/06/26 01:32:57;;;;;;;3.75;1.60;;;25.50;50.80;24.40;100763.00;;;;5046650;28;20134;-66
2022/06/26 01:35:43;;;;;;;2.45;1.67;;;25.60;50.80;24.40;100764.00;;;;5056308;28;20044;-66
2022/06/26 01:38:29;;;;;;;2.60;1.88;;;25.60;50.60;24.40;100770.00;;;;5057165;28;20048;-66
2022/06/26 01:41:15;;;;;;;2.08;1.52;;;25.50;50.50;24.40;100755.00;;;;5047390;28;20532;-66
2022/06/26 01:44:01;;;;;;;3.58;2.42;;;25.50;50.50;24.40;100773.00;;;;5055544;28;20044;-66
2022/06/26 01:46:47;;;;;;;2.63;2.25;;;25.60;50.60;24.40;100778.00;;;;5063395;28;20062;-66
2022/06/26 01:49:33;;;;;;;5.22;2.38;;;25.50;50.60;24.40;100770.00;;;;5059222;28;20048;-67
2022/06/26 01:52:20;;;;;;;4.30;1.98;;;25.50;50.50;24.40;100773.00;;;;5066048;28;20493;-66
2022/06/26 01:55:06;;;;;;;3.65;2.22;;;25.50;50.60;24.40;100767.00;;;;5059242;28;20049;-66
2022/06/26 01:57:52;;;;;;;3.03;2.25;;;25.50;50.50;24.40;100764.00;;;;5059159;28;20048;-66
2022/06/26 02:00:40;;;;;;;3.17;2.00;;;25.50;50.60;24.40;100770.00;;;;5064100;28;20122;-66
2022/06/26 02:03:26;;;;;;;2.50;2.22;;;25.50;50.60;24.40;100777.00;;;;5051278;28;20174;-66
2022/06/26 02:06:12;;;;;;;6.03;2.53;;;25.50;50.70;24.40;100769.00;;;;5045693;28;20043;-66
2022/06/26 02:08:58;;;;;;;2.60;2.20;;;25.50;50.60;24.40;100772.00;;;;5059014;28;20049;-66
2022/06/26 02:14:49;;;;;;;2.97;2.13;;;25.50;50.80;24.40;100783.00;;;;5058280;28;20329;-66
2022/06/26 02:17:35;;;;;;;2.88;1.90;;;25.50;50.80;24.40;100782.00;;;;5045972;28;20040;-66
2022/06/26 02:20:21;;;;;;;2.67;2.28;;;25.40;50.70;24.40;100776.00;;;;5059108;28;20040;-66
2022/06/26 02:23:07;;;;;;;6.03;2.08;;;25.50;50.80;24.40;100766.00;;;;5062181;28;20557;-66
2022/06/26 02:25:53;;;;;;;2.70;1.73;;;25.50;50.80;24.40;100764.00;;;;5044589;28;20033;-66
2022/06/26 02:28:39;;;;;;;5.20;2.08;;;25.50;50.80;24.40;100766.00;;;;5061005;28;20041;-66
2022/06/26 02:31:25;;;;;;;2.67;2.15;;;25.50;50.80;24.40;100760.00;;;;5062554;28;20090;-66
2022/06/26 02:34:11;;;;;;;3.72;2.08;;;25.40;50.80;24.40;100755.00;;;;5053842;28;20043;-66
2022/06/26 02:36:57;;;;;;;4.25;2.03;;;25.50;50.90;24.40;100754.00;;;;5064827;28;20418;-66
2022/06/26 02:39:44;;;;;;;3.97;2.33;;;25.60;50.90;24.40;100754.00;;;;5056182;28;20036;-66
2022/06/26 02:42:30;;;;;;;3.30;2.30;;;25.50;50.90;24.40;100776.00;;;;5063852;28;20049;-66
2022/06/26 02:45:16;;;;;;;3.33;1.90;;;25.50;50.90;24.40;100783.00;;;;5064065;28;20470;-66
2022/06/26 02:48:02;;;;;;;3.55;1.75;;;25.50;50.90;24.40;100781.00;;;;5060445;28;20041;-66
2022/06/26 02:50:48;;;;;;;2.10;1.65;;;25.50;50.90;24.40;100777.00;;;;5046247;28;20119;-66
2022/06/26 02:53:34;;;;;;;2.20;1.80;;;25.50;51.00;24.40;100782.00;;;;5054413;28;20040;-66
2022/06/26 02:56:20;;;;;;;2.00;1.70;;;25.50;51.00;24.40;100784.00;;;;5061363;28;20040;-66
2022/06/26 02:59:06;;;;;;;1.77;1.67;;;25.50;51.10;24.40;100789.00;;;;5058967;28;20044;-66
2022/06/26 03:01:53;;;;;;;2.25;1.77;;;25.50;51.10;24.40;100805.00;;;;5058762;28;20105;-66
2022/06/26 03:04:39;;;;;;;1.80;1.65;;;25.50;51.20;24.40;100812.00;;;;5061704;28;20037;-66
2022/06/26 03:07:25;;;;;;;4.00;2.08;;;25.50;51.30;24.40;100814.00;;;;5062694;28;20028;-66
2022/06/26 03:10:11;;;;;;;2.28;1.75;;;25.50;51.30;24.40;100812.00;;;;5061392;28;20043;-66
2022/06/26 03:12:57;;;;;;;2.63;1.80;;;25.50;51.40;24.40;100809.00;;;;5058829;28;20306;-67
2022/06/26 03:15:43;;;;;;;2.08;1.70;;;25.50;51.40;24.40;100801.00;;;;5063126;28;20040;-66
2022/06/26 03:18:29;;;;;;;2.65;2.10;;;25.50;51.50;24.40;100809.00;;;;5064897;28;20500;-66
2022/06/26 03:21:15;;;;;;;5.72;2.60;;;25.50;51.50;24.40;100814.00;;;;5063921;28;20040;-66
2022/06/26 03:24:02;;;;;;;3.40;2.45;;;25.50;51.60;24.40;100811.00;;;;5050815;28;20044;-66
2022/06/26 03:26:48;;;;;;;4.28;2.03;;;25.50;51.60;24.40;100835.00;;;;5060385;28;20028;-66
2022/06/26 03:29:34;;;;;;;1.98;1.77;;;25.50;51.60;24.40;100833.00;;;;5064551;28;20468;-66
2022/06/26 03:32:20;;;;;;;3.22;2.05;;;25.50;51.60;24.40;100828.00;;;;5065347;28;20068;-66
2022/06/26 03:35:07;;;;;;;2.40;2.17;;;25.50;51.60;24.40;100833.00;;;;5067491;28;20220;-66
2022/06/26 03:37:53;;;;;;;3.53;2.05;;;25.50;51.70;24.40;100830.00;;;;5062411;28;20043;-66
2022/06/26 03:40:39;;;;;;;2.97;2.13;;;25.50;51.60;24.40;100834.00;;;;5063645;28;20056;-66
2022/06/26 03:43:25;;;;;;;2.80;2.08;;;25.50;51.70;24.40;100828.00;;;;5066777;28;20539;-66
2022/06/26 03:46:11;;;;;;;2.90;2.42;;;25.50;51.70;24.40;100846.00;;;;5046159;28;20040;-67
2022/06/26 03:48:57;;;;;;;3.15;2.50;;;25.50;51.80;24.40;100849.00;;;;5048330;28;20732;-67
2022/06/26 03:51:43;;;;;;;3.88;2.33;;;25.50;51.80;24.40;100862.00;;;;5048542;28;20051;-66
2022/06/26 03:54:30;;;;;;;3.53;2.13;;;25.50;51.80;24.40;100865.00;;;;5063348;28;20123;-66
2022/06/26 03:57:16;;;;;;;2.95;2.40;;;25.50;51.80;24.40;100871.00;;;;5045750;28;20048;-66
2022/06/26 04:00:03;;;;;;;3.85;2.63;;;25.50;51.90;24.40;100873.00;;;;5048020;28;20402;-66
2022/06/26 04:02:49;;;;;;;3.95;2.60;;;25.50;52.60;24.40;100879.00;;;;5066745;28;20124;-66
2022/06/26 04:05:37;;;;;;;3.38;3.08;;;25.50;52.00;24.40;100876.00;;;;5062265;28;20041;-66
2022/06/26 04:08:23;;;;;;;3.78;3.08;;;25.40;52.00;24.40;100880.00;;;;5035268;28;20033;-66
2022/06/26 04:11:09;;;;;;;3.58;3.20;;;25.50;52.10;24.40;100875.00;;;;5063672;28;20044;-66
2022/06/26 04:13:55;;;;;;;3.58;2.97;;;25.40;52.10;24.40;100874.00;;;;5064447;28;20481;-66
2022/06/26 04:16:41;;;;;;;4.75;3.20;;;25.50;52.10;24.40;100882.00;;;;5049620;28;20037;-66
2022/06/26 04:19:27;;;;;;;3.67;3.30;;;25.50;52.30;24.40;100890.00;;;;5057656;28;20485;-66
2022/06/26 04:22:13;;;;;;;3.47;3.17;;;25.40;52.30;24.40;100896.00;;;;5063588;28;20098;-66
2022/06/26 04:24:59;;;;;;;4.13;2.72;;;25.50;52.40;24.40;100901.00;;;;5064917;28;20504;-66
2022/06/26 04:27:45;;;;;;;4.10;3.60;;;25.30;52.20;24.40;100893.00;;;;5056748;28;20099;-66
2022/06/26 04:30:31;;;;;;;3.42;3.05;;;25.50;52.50;24.30;100915.00;;;;5063604;28;20037;-66
2022/06/26 04:33:17;;;;;;;3.20;2.90;;;25.40;52.40;24.40;100921.00;;;;5060165;28;20044;-66
2022/06/26 04:36:03;;;;;;;5.25;3.88;;;25.50;52.50;24.30;100907.00;;;;5048775;28;20039;-66
2022/06/26 04:38:49;;;;;;;4.43;3.25;;;25.40;52.50;24.40;100922.00;;;;5059825;28;20037;-66
2022/06/26 04:41:35;;;;;;;5.25;3.75;;;25.40;52.50;24.30;100938.00;;;;5067395;28;20159;-66
2022/06/26 04:44:21;;;;;;;4.95;3.55;;;25.40;52.60;24.30;100933.00;;;;5062412;28;20036;-66
2022/06/26 04:47:08;;;;;;;4.63;3.28;;;25.40;52.60;24.30;100934.00;;;;5048422;28;20036;-66
2022/06/26 04:49:54;;;;;;;3.80;3.13;;;25.50;52.70;24.30;100935.00;;;;5063844;28;20254;-66
2022/06/26 04:52:46;;;;;;;5.03;3.20;;;25.40;52.70;24.30;100951.00;;;;5057956;28;20044;-66
2022/06/26 04:55:32;;;;;;;3.65;3.22;;;25.40;52.80;24.30;100953.00;;;;5046149;28;20126;-66
2022/06/26 04:58:18;;;;;;;3.33;3.03;;;25.40;52.70;24.30;100952.00;;;;5062706;28;20055;-67
2022/06/26 05:01:04;;;;;;;3.10;2.72;;;25.50;52.70;24.30;100941.00;;;;5063040;28;20123;-66
2022/06/26 05:03:51;;;;;;;4.25;2.95;;;25.40;52.70;24.30;100945.00;;;;5044297;28;20045;-66
2022/06/26 05:06:37;;;;;;;3.53;2.85;;;25.40;52.60;24.30;100969.00;;;;5045826;28;20033;-66
2022/06/26 05:09:23;;;;;;;3.08;2.70;;;25.40;52.60;24.30;100958.00;;;;5043374;28;20276;-66
2022/06/26 05:12:09;;;;;;;3.83;2.67;;;25.40;52.60;24.30;100966.00;;;;5037486;28;20072;-66
2022/06/26 05:14:55;;;;;;;2.47;2.28;;;25.30;52.50;24.30;100960.00;;;;5062043;28;20449;-66
2022/06/26 05:17:41;;;;;;;2.47;2.28;;;25.40;52.60;24.30;100958.00;;;;5061838;28;20036;-66
2022/06/26 05:20:27;;;;;;;4.55;2.10;;;25.40;52.60;24.30;100981.00;;;;5060381;28;20051;-66
2022/06/26 05:23:14;;;;;;;2.60;1.88;;;25.40;52.40;24.30;100973.00;;;;5059387;28;20040;-66
2022/06/26 05:26:00;;;;;;;3.57;2.30;;;25.40;52.50;24.30;100970.00;;;;5047024;28;20044;-66
2022/06/26 05:28:46;;;;;;;2.45;1.98;;;25.40;52.50;24.30;100966.00;;;;5063925;28;20043;-66
2022/06/26 05:31:32;;;;;;;3.13;1.88;;;25.40;52.40;24.30;100961.00;;;;5061112;28;20044;-66
2022/06/26 05:34:18;;;;;;;2.00;1.70;;;25.40;52.50;24.30;100961.00;;;;5063483;28;20102;-66
2022/06/26 05:37:05;;;;;;;2.20;2.00;;;25.40;52.50;24.30;100957.00;;;;5046178;28;20097;-66
2022/06/26 05:39:51;;;;;;;3.53;2.03;;;25.50;52.60;24.30;100968.00;;;;5059307;28;20093;-66
2022/06/26 05:42:37;;;;;;;2.15;1.83;;;25.30;52.40;24.30;100956.00;;;;5064145;28;20041;-66
2022/06/26 05:45:23;;;;;;;1.63;1.48;;;25.40;52.50;24.30;100966.00;;;;5057031;28;20044;-66
2022/06/26 05:48:09;;;;;;;3.05;2.08;;;25.30;52.40;24.30;100962.00;;;;5064155;28;20040;-66
2022/06/26 05:50:55;;;;;;;2.13;1.83;;;25.40;52.50;24.30;100963.00;;;;5060887;28;20041;-66
2022/06/26 05:53:41;;;;;;;7.28;2.20;;;25.30;52.40;24.30;100973.00;;;;5065797;28;20456;-70
2022/06/26 05:56:27;;;;;;;4.15;1.70;;;25.40;52.40;24.30;100982.00;;;;5051783;28;20045;-66
2022/06/26 05:59:13;;;;;;;3.47;2.25;;;25.20;52.30;24.30;100982.00;;;;5063564;28;20037;-66
2022/06/26 06:01:59;;;;;;;2.10;1.85;;;25.40;52.40;24.30;100993.00;;;;5050110;28;20075;-66
2022/06/26 06:04:45;;;;;;;2.10;1.80;;;25.30;53.00;24.30;100997.00;;;;5064338;28;20036;-66
2022/06/26 06:07:31;;;;;;;2.03;1.60;;;25.30;52.30;24.30;100996.00;;;;5044732;28;20036;-66
2022/06/26 06:10:19;;;;;;;3.45;2.03;;;25.30;52.40;24.30;101001.00;;;;5059068;28;20033;-66
2022/06/26 06:13:05;;;;;;;3.08;1.85;;;25.30;52.40;24.30;100998.00;;;;5052763;28;20520;-66
2022/06/26 06:15:51;;;;;;;2.50;2.10;;;25.30;52.40;24.30;101005.00;;;;5062685;28;20044;-66
2022/06/26 06:18:38;;;;;;;2.22;1.65;;;25.30;52.40;24.30;101004.00;;;;5064302;28;20407;-66
2022/06/26 06:21:27;;;;;;;2.38;2.10;;;25.40;52.50;24.30;101001.00;;;;5063475;28;20045;-66
2022/06/26 06:24:14;;;;;;;2.75;1.63;;;25.30;52.30;24.30;101004.00;;;;5042915;28;20053;-66
2022/06/26 06:27:00;;;;;;;2.47;2.08;;;25.30;52.50;24.30;101002.00;;;;5062853;28;20040;-66
2022/06/26 06:29:46;;;;;;;2.10;1.95;;;25.40;52.40;24.30;101011.00;;;;5055452;28;20036;-66
2022/06/26 06:32:32;;;;;;;3.33;2.30;;;25.40;52.40;24.20;101016.00;;;;5062150;28;20040;-66
2022/06/26 06:35:19;;;;;;;2.30;2.10;;;25.20;52.30;24.30;101020.00;;;;5063853;28;20046;-66
2022/06/26 06:38:05;;;;;;;3.28;2.50;;;25.40;52.40;24.30;101027.00;;;;5057539;28;20124;-66
2022/06/26 06:40:51;;;;;;;2.70;1.85;;;25.30;52.20;24.30;101028.00;;;;5062103;28;20063;-66
2022/06/26 06:43:37;;;;;;;1.98;1.77;;;25.30;52.20;24.30;101031.00;;;;5057783;28;20592;-66
2022/06/26 06:46:23;;;;;;;2.42;2.00;;;25.30;52.30;24.30;101035.00;;;;5056305;28;20211;-66
2022/06/26 06:49:09;;;;;;;2.85;2.45;;;25.30;52.30;24.30;101042.00;;;;5056563;28;20192;-66
2022/06/26 06:51:55;;;;;;;2.67;2.17;;;25.20;52.20;24.20;101042.00;;;;5061645;28;20048;-66
2022/06/26 06:54:41;;;;;;;3.80;2.22;;;25.30;52.30;24.30;101051.00;;;;5040528;28;20043;-66
2022/06/26 06:57:27;;;;;;;3.70;2.42;;;25.30;52.30;24.20;101058.00;;;;5064853;28;20044;-66
2022/06/26 07:00:14;;;;;;;2.05;1.85;;;25.30;52.20;24.20;101070.00;;;;5054816;28;20040;-66
2022/06/26 07:03:01;;;;;;;2.92;1.77;;;25.30;52.20;24.20;101062.00;;;;5047890;28;20048;-67
2022/06/26 07:05:47;;;;;;;3.63;2.00;;;25.30;52.20;24.20;101065.00;;;;5042273;28;20086;-66
2022/06/26 07:08:33;;;;;;;1.85;1.75;;;25.30;52.20;24.20;101070.00;;;;5057343;28;20037;-66
2022/06/26 07:11:20;;;;;;;3.42;2.15;;;25.30;52.10;24.20;101072.00;;;;5061027;28;20037;-66
2022/06/26 07:14:06;;;;;;;4.97;2.40;;;25.40;52.10;24.20;101072.00;;;;5049954;28;20049;-66
2022/06/26 07:16:52;;;;;;;5.25;2.40;;;25.30;52.10;24.20;101070.00;;;;5067227;28;20477;-66
2022/06/26 07:19:38;;;;;;;3.83;2.97;;;25.30;52.10;24.20;101081.00;;;;5062430;28;20169;-66
2022/06/26 07:22:24;;;;;;;3.35;3.05;;;25.30;52.00;24.20;101080.00;;;;5063405;28;20040;-66
2022/06/26 07:25:10;;;;;;;6.55;3.70;;;25.30;52.00;24.20;101089.00;;;;5060326;28;20116;-66
2022/06/26 07:27:56;;;;;;;4.45;3.50;;;25.30;51.90;24.20;101083.00;;;;5061373;28;20041;-66
2022/06/26 07:30:42;;;;;;;4.07;3.67;;;25.30;51.70;24.20;101095.00;;;;5047604;28;20033;-66
2022/06/26 07:36:32;;;;;;;4.38;3.78;;;25.30;51.80;24.10;101101.00;;;;5044449;28;20219;-67
2022/06/26 07:39:20;;;;;;;3.72;3.42;;;25.30;51.80;24.10;101102.00;;;;5063442;28;20040;-67
2022/06/26 07:42:06;;;;;;;5.65;4.10;;;25.30;51.70;24.10;101096.00;;;;5049405;28;20056;-67
2022/06/26 07:44:52;;;;;;;4.28;3.65;;;25.20;51.70;24.10;101084.00;;;;5049564;28;20041;-67
2022/06/26 07:47:38;;;;;;;5.53;3.67;;;25.20;51.80;24.10;101081.00;;;;5060496;28;20036;-67
2022/06/26 07:50:24;;;;;;;4.78;3.10;;;25.30;51.90;24.10;101083.00;;;;5047611;28;20464;-66
2022/06/26 07:53:10;;;;;;;4.47;3.88;;;25.20;51.80;24.10;101101.00;;;;5061036;28;20043;-66
2022/06/26 07:55:56;;;;;;;5.72;3.60;;;25.20;51.90;24.10;101100.00;;;;5064085;28;20052;-66
2022/06/26 07:58:42;;;;;;;3.50;3.20;;;25.20;51.80;24.10;101115.00;;;;5060620;28;20037;-66
2022/06/26 08:01:29;;;;;;;13.75;4.25;;;25.20;52.00;24.10;101118.00;;;;5058473;28;20037;-66
2022/06/26 08:04:15;;;;;;;4.57;3.35;;;25.30;52.00;24.10;101115.00;;;;5060471;28;20493;-66
2022/06/26 08:07:01;;;;;;;3.75;3.35;;;25.20;52.00;24.10;101118.00;;;;5063109;28;20052;-66
2022/06/26 08:09:47;;;;;;;2.92;2.63;;;25.20;51.80;24.10;101119.00;;;;5046884;28;20501;-66
2022/06/26 08:12:33;;;;;;;3.63;3.30;;;25.30;51.60;24.10;101138.00;;;;5065741;28;20032;-66
2022/06/26 08:15:20;;;;;;;5.90;3.28;;;25.20;51.60;24.10;101138.00;;;;5063123;28;20040;-66
2022/06/26 08:18:07;;;;;;;3.53;3.22;;;25.20;51.50;24.10;101141.00;;;;5064138;28;20097;-66
2022/06/26 08:20:53;;;;;;;3.85;3.47;;;25.20;51.60;24.10;101139.00;;;;5065062;28;20462;-66
2022/06/26 08:23:39;;;;;;;4.18;3.45;;;25.20;51.50;24.10;101143.00;;;;5058123;28;20045;-66
2022/06/26 08:26:25;;;;;;;3.80;3.10;;;25.20;51.60;24.10;101137.00;;;;5061809;28;20484;-65
2022/06/26 08:29:11;;;;;;;5.32;3.28;;;25.20;51.70;24.10;101146.00;;;;5061296;28;20131;-65
2022/06/26 08:31:57;;;;;;;4.75;3.22;;;25.10;51.70;24.10;101155.00;;;;5061117;28;20047;-66
2022/06/26 08:34:43;;;;;;;4.90;3.85;;;25.10;51.60;24.10;101155.00;;;;5041797;28;20036;-66
2022/06/26 08:37:29;;;;;;;4.32;3.45;;;25.10;52.10;24.10;101159.00;;;;5061646;28;20087;-66
2022/06/26 08:40:16;;;;;;;5.25;3.42;;;25.20;51.50;24.10;101146.00;;;;5056194;28;20207;-67
2022/06/26 08:43:02;;;;;;;4.50;3.72;;;25.10;51.50;24.10;101139.00;;;;5061278;28;20577;-65
2022/06/26 08:45:53;;;;;;;4.70;3.70;;;25.10;51.50;24.10;101150.00;;;;5062973;28;20033;-65
2022/06/26 08:48:59;;;;;;;4.70;3.60;;;25.10;51.40;24.10;101150.00;;;;5043573;28;20060;-66
2022/06/26 08:51:47;;;;;;;3.75;3.35;;;25.10;51.40;24.10;101160.00;;;;5048028;28;20313;-66
2022/06/26 08:54:33;;;;;;;5.88;4.15;;;25.20;51.10;24.10;101156.00;;;;5059532;28;20072;-66
2022/06/26 08:57:20;;;;;;;6.35;4.05;;;25.10;51.00;24.10;101167.00;;;;5061528;28;20036;-66
2022/06/26 09:00:08;;;;;;;9.57;3.90;;;25.10;51.00;24.00;101168.00;;;;5050824;28;20493;-66
2022/06/26 09:02:54;;;;;;;4.75;3.72;;;25.10;51.40;24.00;101170.00;;;;5064697;28;20497;-66
2022/06/26 09:05:40;;;;;;;4.00;3.55;;;25.10;51.50;24.00;101178.00;;;;5054613;28;20116;-65
2022/06/26 09:08:28;;;;;;;5.18;3.25;;;25.00;51.40;23.90;101185.00;;;;5059705;28;20051;-65
2022/06/26 09:11:15;;;;;;;5.30;3.40;;;25.00;51.40;23.90;101174.00;;;;5060170;28;20103;-66
2022/06/26 09:14:01;;;;;;;5.17;3.60;;;24.90;51.30;23.90;101178.00;;;;5048306;28;20040;-66
2022/06/26 09:16:48;;;;;;;3.38;3.08;;;24.90;51.30;23.90;101175.00;;;;5042357;28;20063;-67
2022/06/26 09:19:36;;;;;;;3.60;2.88;;;24.90;51.40;23.90;101188.00;;;;5063390;28;20474;-66
2022/06/26 09:22:22;;;;;;;3.38;2.78;;;24.90;51.00;23.90;101192.00;;;;5047299;28;20036;-66
2022/06/26 09:25:08;;;;;;;2.55;2.03;;;24.80;50.50;23.80;101193.00;;;;5042176;28;20040;-66
2022/06/26 09:27:54;;;;;;;2.85;2.38;;;24.80;50.20;23.80;101187.00;;;;5061492;28;20419;-66
2022/06/26 09:30:51;;;;;;;2.83;2.15;;;24.80;50.20;23.90;101186.00;;;;5057448;28;20206;-67
2022/06/26 09:33:39;;;;;;;2.75;2.22;;;24.80;50.20;23.90;101186.00;;;;5051114;28;20040;-67
2022/06/26 09:36:25;;;;;;;4.85;2.20;;;24.70;50.30;23.90;101186.00;;;;5063210;28;20113;-67
2022/06/26 09:39:14;;;;;;;2.67;2.00;;;24.70;50.00;23.90;101183.00;;;;5047041;28;20401;-67
2022/06/26 09:42:16;;;;;;;1.95;1.77;;;24.80;49.90;23.90;101181.00;;;;5065120;28;20059;-67
2022/06/26 09:45:03;;;;;;;2.55;2.00;;;24.80;50.00;23.90;101190.00;;;;5039201;28;20036;-66
2022/06/26 09:47:49;;;;;;;2.60;2.40;;;24.80;50.30;24.00;101193.00;;;;5066099;28;20036;-66
2022/06/26 09:50:35;;;;;;;4.88;2.35;;;24.90;50.20;24.00;101196.00;;;;5057221;28;20038;-66
2022/06/26 09:53:21;;;;;;;1.85;1.70;;;24.90;50.10;24.00;101195.00;;;;5043268;28;20064;-68
2022/06/26 09:56:08;;;;;;;2.83;2.50;;;24.90;50.10;24.00;101191.00;;;;5042203;28;20072;-66
2022/06/26 09:58:54;;;;;;;5.25;2.83;;;24.90;50.20;24.10;101176.00;;;;5041392;28;20071;-66
2022/06/26 10:07:49;;;;;;;4.63;2.42;;;25.00;49.90;24.10;101180.00;;;;5048052;28;20366;-66
2022/06/26 10:10:37;;;;;;;2.97;2.05;;;25.00;49.60;24.10;101181.00;;;;5045888;28;20422;-65
2022/06/26 10:13:23;;;;;;;2.70;2.35;;;25.00;49.60;24.10;101183.00;;;;5061440;28;20044;-65
2022/06/26 10:16:40;;;;;;;2.80;1.77;;;25.10;49.10;24.10;101180.00;;;;5047228;28;20478;-65
2022/06/26 10:19:42;;;;;;;3.92;1.98;;;25.10;49.40;24.10;101169.00;;;;5046589;28;20565;-66
2022/06/26 10:22:45;;;;;;;3.25;1.55;;;25.10;48.80;24.10;101169.00;;;;5044809;28;20178;-66
2022/06/26 10:25:31;;;;;;;1.65;1.55;;;25.10;48.80;24.10;101174.00;;;;5060405;28;20641;-66
2022/06/26 10:28:18;;;;;;;1.77;1.50;;;25.10;48.60;24.10;101164.00;;;;5040374;28;20492;-66
2022/06/26 10:31:07;;;;;;;3.72;2.03;;;25.10;48.80;24.10;101171.00;;;;5049336;28;20183;-66
2022/06/26 10:33:53;;;;;;;3.88;1.63;;;25.10;48.60;24.10;101175.00;;;;5058421;28;20078;-66
2022/06/26 10:36:40;;;;;;;2.58;1.67;;;25.10;48.60;24.10;101181.00;;;;5058668;28;20045;-66
2022/06/26 10:39:49;;;;;;;2.47;2.13;;;25.10;48.30;24.10;101177.00;;;;5058183;28;20050;-66
2022/06/26 10:42:53;;;;;;;5.40;1.60;;;25.10;47.90;24.20;101185.00;;;;5060027;28;20135;-66
2022/06/26 10:45:40;;;;;;;1.50;1.40;;;25.20;48.10;24.20;101181.00;;;;5039630;28;20048;-66
2022/06/26 10:48:26;;;;;;;4.23;1.80;;;25.10;48.00;24.20;101185.00;;;;5046633;28;20524;-66
2022/06/26 10:51:12;;;;;;;2.65;1.45;;;25.20;47.90;24.20;101182.00;;;;5063321;28;20286;-66
2022/06/26 10:53:58;;;;;;;2.15;1.38;;;25.20;47.70;24.20;101192.00;;;;5033730;28;20500;-66
2022/06/26 10:56:45;;;;;;;2.88;1.60;;;25.10;47.90;24.20;101191.00;;;;5045097;28;20044;-66
2022/06/26 10:59:31;;;;;;;4.03;1.80;;;25.20;47.90;24.30;101194.00;;;;5044236;28;20052;-66
2022/06/26 11:02:17;;;;;;;2.03;1.30;;;25.20;47.80;24.20;101180.00;;;;5064178;28;20320;-66
2022/06/26 11:05:04;;;;;;;1.52;1.42;;;25.30;47.40;24.30;101186.00;;;;5062844;28;20231;-66
2022/06/26 11:07:53;;;;;;;3.00;1.67;;;25.20;47.20;24.30;101177.00;;;;5060663;28;20040;-66
2022/06/26 11:10:39;;;;;;;3.00;1.85;;;25.30;47.20;24.30;101190.00;;;;5058590;28;20029;-66
2022/06/26 11:13:25;;;;;;;2.15;1.52;;;25.30;47.10;24.20;101193.00;;;;5032056;28;20037;-66
2022/06/26 11:16:11;;;;;;;1.88;1.67;;;25.20;47.10;24.20;101195.00;;;;5063072;28;20059;-66
2022/06/26 11:18:58;;;;;;;4.68;1.77;;;25.20;47.00;24.20;101204.00;;;;5047289;28;20043;-66
2022/06/26 11:21:44;;;;;;;;;;;25.20;47.10;24.20;101205.00;;;;5066690;28;20079;-66
2022/06/26 11:24:30;;;;;;;2.28;1.52;;;25.20;47.80;24.20;101202.00;;;;5064167;28;20285;-66
2022/06/26 11:27:23;;;;;;;2.35;1.45;;;25.30;47.30;24.20;101195.00;;;;5061403;28;20032;-66
2022/06/26 11:30:09;;;;;;;4.18;1.80;;;25.30;47.20;24.20;101195.00;;;;5047002;28;20041;-66
2022/06/26 11:32:55;;;;;;;3.00;1.90;;;25.30;47.30;24.20;101201.00;;;;5031358;28;20470;-66
2022/06/26 11:35:42;;;;;;;2.38;1.80;;;25.20;47.30;24.20;101216.00;;;;5043031;28;20055;-66
2022/06/26 11:38:28;;;;;;;2.25;1.60;;;25.30;47.40;24.20;101216.00;;;;5059387;28;20048;-66
2022/06/26 11:41:14;;;;;;;1.88;1.67;;;25.20;47.30;24.20;101236.00;;;;5063293;28;20048;-66
2022/06/26 11:44:00;;;;;;;3.17;1.48;;;25.30;47.30;24.20;101222.00;;;;5045559;28;20041;-66
2022/06/26 11:46:46;;;;;;;2.85;1.45;;;25.20;47.30;24.20;101209.00;;;;5062067;28;20051;-66
2022/06/26 11:49:33;;;;;;;7.38;1.90;;;25.20;47.20;24.20;101212.00;;;;5043854;28;20032;-66
2022/06/26 11:52:19;;;;;;;1.98;1.30;;;25.20;47.30;24.20;101222.00;;;;5060560;28;20041;-66
2022/06/26 11:55:05;;;;;;;3.42;1.60;;;25.10;47.40;24.20;101227.00;;;;5050990;28;20044;-66
2022/06/26 11:57:53;;;;;;;3.80;2.00;;;25.20;47.50;24.20;101222.00;;;;5049525;28;20496;-66
2022/06/26 12:00:39;;;;;;;2.05;1.85;;;25.20;47.50;24.20;101224.00;;;;5032254;28;20058;-66
2022/06/26 12:03:25;;;;;;;2.33;1.65;;;25.20;47.60;24.20;101228.00;;;;5068182;28;20545;-66
2022/06/26 12:06:11;;;;;;;2.25;1.80;;;25.20;47.80;24.20;101233.00;;;;5060254;28;20037;-66
2022/06/26 12:09:18;;;;;;;4.28;2.00;;;25.20;48.00;24.20;101238.00;;;;5047879;28;20393;-66
2022/06/26 12:12:05;;;;;;;1.88;1.75;;;25.20;47.50;24.20;101242.00;;;;5052069;28;20044;-66
2022/06/26 12:14:53;;;;;;;2.30;2.03;;;25.20;47.60;24.20;101245.00;;;;5040135;28;20044;-66
2022/06/26 12:17:39;;;;;;;3.20;1.73;;;25.20;47.60;24.20;101241.00;;;;5051231;28;20413;-66
2022/06/26 12:20:26;;;;;;;6.45;1.88;;;25.20;47.60;24.20;101235.00;;;;5062073;28;20052;-66
2022/06/26 12:23:12;;;;;;;1.75;1.55;;;25.20;48.00;24.20;101244.00;;;;5065163;28;20114;-66
2022/06/26 12:26:08;;;;;;;2.28;1.85;;;25.20;47.80;24.20;101241.00;;;;5035170;28;20510;-66